createdAt,value
2022-08-22T00:02:16.001Z,49.70
2022-08-22T00:02:44.327Z,49.10
2022-08-22T00:03:07.586Z,49.20
2022-08-22T00:04:49.910Z,49.20
2022-08-22T00:07:22.413Z,49.10
2022-08-22T00:09:58.556Z,49.10
2022-08-22T00:12:30.950Z,49.00
2022-08-22T00:15:01.008Z,49.10
2022-08-22T00:17:31.250Z,49.00
2022-08-22T00:20:05.058Z,49.00
2022-08-22T00:22:37.701Z,49.10
2022-08-22T00:25:20.596Z,49.10
2022-08-22T00:28:00.472Z,49.10
2022-08-22T00:30:31.428Z,49.00
2022-08-22T00:33:03.373Z,48.90
2022-08-22T00:35:36.004Z,49.00
2022-08-22T00:38:43.743Z,49.00
2022-08-22T00:41:28.348Z,49.50
2022-08-22T00:44:00.778Z,49.00
2022-08-22T00:46:35.459Z,48.80
2022-08-22T00:49:05.438Z,48.90
2022-08-22T00:51:58.289Z,48.80
2022-08-22T00:54:31.186Z,48.90
2022-08-22T00:57:38.973Z,48.80
2022-08-22T01:00:13.883Z,48.90
2022-08-22T01:02:53.068Z,48.90
2022-08-22T01:05:48.709Z,48.80
2022-08-22T01:08:23.501Z,48.80
2022-08-22T01:11:07.780Z,48.70
2022-08-22T01:13:55.469Z,48.80
2022-08-22T01:16:30.401Z,48.70
2022-08-22T01:19:02.963Z,48.70
2022-08-22T01:21:32.379Z,48.70
2022-08-22T01:24:20.033Z,48.70
2022-08-22T01:26:49.523Z,48.70
2022-08-22T01:29:37.104Z,48.70
2022-08-22T01:32:28.027Z,48.70
2022-08-22T01:34:57.474Z,48.70
2022-08-22T01:37:30.031Z,48.60
2022-08-22T01:40:02.721Z,48.60
2022-08-22T01:42:42.187Z,48.60
2022-08-22T01:45:30.554Z,48.60
2022-08-22T01:48:12.143Z,48.50
2022-08-22T01:50:47.737Z,48.60
2022-08-22T01:53:20.340Z,48.50
2022-08-22T01:55:49.881Z,48.50
2022-08-22T01:58:20.347Z,48.50
2022-08-22T02:01:05.348Z,48.50
2022-08-22T02:04:00.796Z,48.50
2022-08-22T02:06:36.053Z,48.40
2022-08-22T02:09:08.249Z,48.40
2022-08-22T02:11:42.453Z,48.30
2022-08-22T02:14:14.735Z,48.30
2022-08-22T02:16:45.130Z,48.30
2022-08-22T02:19:17.442Z,48.30
2022-08-22T02:21:56.438Z,48.30
2022-08-22T02:24:28.009Z,48.40
2022-08-22T02:27:06.724Z,48.30
2022-08-22T02:29:49.940Z,48.30
2022-08-22T02:32:24.512Z,48.30
2022-08-22T02:35:02.937Z,48.10
2022-08-22T02:37:59.133Z,48.00
2022-08-22T02:40:28.760Z,48.10
2022-08-22T02:43:08.926Z,48.10
2022-08-22T02:45:39.769Z,48.10
2022-08-22T02:48:27.666Z,48.00
2022-08-22T02:51:06.896Z,48.00
2022-08-22T02:53:39.218Z,48.00
2022-08-22T02:56:27.028Z,48.00
2022-08-22T02:59:00.220Z,48.00
2022-08-22T03:01:31.028Z,47.90
2022-08-22T03:04:24.523Z,47.80
2022-08-22T03:07:00.082Z,47.90
2022-08-22T03:09:33.898Z,47.70
2022-08-22T03:12:07.914Z,47.70
2022-08-22T03:14:44.561Z,47.50
2022-08-22T03:17:25.574Z,47.50
2022-08-22T03:20:03.350Z,47.60
2022-08-22T03:22:46.521Z,47.50
2022-08-22T03:25:28.212Z,47.50
2022-08-22T03:28:23.949Z,47.60
2022-08-22T03:31:09.916Z,47.40
2022-08-22T03:33:40.985Z,47.40
2022-08-22T03:36:10.537Z,47.20
2022-08-22T03:38:41.933Z,47.20
2022-08-22T03:41:14.441Z,47.80
2022-08-22T03:44:16.222Z,47.00
2022-08-22T03:47:04.723Z,47.00
2022-08-22T03:49:34.173Z,46.90
2022-08-22T03:52:12.537Z,46.90
2022-08-22T03:54:54.238Z,46.90
2022-08-22T03:57:26.489Z,47.00
2022-08-22T04:00:07.978Z,46.90
2022-08-22T04:02:42.988Z,47.00
2022-08-22T04:05:49.137Z,46.80
2022-08-22T04:08:28.909Z,47.00
2022-08-22T04:11:17.569Z,46.90
2022-08-22T04:14:10.112Z,46.90
2022-08-22T04:17:02.401Z,46.70
2022-08-22T04:19:50.266Z,46.60
2022-08-22T04:22:26.016Z,46.60
2022-08-22T04:24:59.264Z,46.40
2022-08-22T04:27:37.594Z,46.40
2022-08-22T04:30:07.535Z,46.10
2022-08-22T04:32:37.694Z,46.10
2022-08-22T04:35:09.891Z,46.10
2022-08-22T04:37:40.233Z,46.10
2022-08-22T04:40:09.924Z,46.20
2022-08-22T04:42:41.595Z,46.40
2022-08-22T04:45:12.312Z,46.10
2022-08-22T04:47:54.163Z,46.10
2022-08-22T04:50:59.350Z,45.80
2022-08-22T04:53:33.818Z,45.80
2022-08-22T04:56:07.874Z,45.60
2022-08-22T04:58:48.118Z,45.50
2022-08-22T05:01:21.471Z,45.60
2022-08-22T05:04:00.902Z,45.50
2022-08-22T05:06:31.073Z,45.50
2022-08-22T05:09:01.778Z,45.30
2022-08-22T05:11:31.391Z,45.30
2022-08-22T05:14:08.772Z,45.30
2022-08-22T05:16:39.494Z,45.40
2022-08-22T05:19:16.783Z,45.30
2022-08-22T05:21:47.712Z,45.30
2022-08-22T05:24:27.951Z,45.40
2022-08-22T05:26:58.657Z,45.30
2022-08-22T05:29:29.922Z,45.30
2022-08-22T05:32:00.741Z,45.10
2022-08-22T05:34:31.178Z,45.10
2022-08-22T05:37:08.035Z,45.10
2022-08-22T05:39:38.097Z,45.00
2022-08-22T05:42:08.137Z,44.80
2022-08-22T05:44:38.806Z,45.10
2022-08-22T05:47:08.420Z,45.10
2022-08-22T05:49:42.056Z,45.10
2022-08-22T05:52:17.602Z,45.20
2022-08-22T05:54:54.766Z,45.20
2022-08-22T05:57:34.428Z,45.00
2022-08-22T06:00:05.898Z,45.00
2022-08-22T06:02:57.495Z,45.00
2022-08-22T06:05:27.944Z,45.00
2022-08-22T06:08:00.777Z,45.00
2022-08-22T06:10:42.528Z,44.90
2022-08-22T06:13:24.535Z,45.10
2022-08-22T06:15:57.926Z,44.80
2022-08-22T06:18:27.920Z,44.80
2022-08-22T06:20:58.156Z,44.90
2022-08-22T06:23:47.201Z,44.90
2022-08-22T06:26:20.499Z,44.50
2022-08-22T06:28:55.035Z,44.40
2022-08-22T06:31:27.476Z,44.30
2022-08-22T06:34:00.871Z,44.30
2022-08-22T06:36:33.423Z,44.30
2022-08-22T06:39:06.818Z,44.10
2022-08-22T06:41:38.005Z,44.10
2022-08-22T06:44:07.610Z,43.80
2022-08-22T06:46:38.098Z,43.60
2022-08-22T06:49:08.570Z,43.80
2022-08-22T06:51:38.945Z,43.60
2022-08-22T06:54:09.585Z,43.30
2022-08-22T06:56:43.079Z,43.10
2022-08-22T06:59:14.393Z,43.00
2022-08-22T07:01:58.737Z,43.00
2022-08-22T07:04:28.325Z,43.00
2022-08-22T07:06:58.230Z,41.70
2022-08-22T07:09:29.383Z,38.70
2022-08-22T07:12:00.099Z,37.10
2022-08-22T07:14:55.373Z,35.60
2022-08-22T07:17:25.501Z,34.80
2022-08-22T07:20:01.068Z,34.30
2022-08-22T07:22:31.904Z,33.90
2022-08-22T07:25:12.143Z,33.60
2022-08-22T07:28:01.348Z,33.40
2022-08-22T07:30:40.302Z,33.50
2022-08-22T07:33:26.726Z,33.40
2022-08-22T07:36:05.146Z,33.70
2022-08-22T07:38:44.054Z,33.50
2022-08-22T07:41:24.087Z,33.40
2022-08-22T07:43:55.183Z,33.30
2022-08-22T07:46:28.188Z,33.50
2022-08-22T07:49:16.455Z,33.70
2022-08-22T07:51:46.720Z,33.80
2022-08-22T07:54:17.030Z,33.90
2022-08-22T07:56:51.457Z,34.10
2022-08-22T07:59:21.147Z,34.00
2022-08-22T08:01:52.791Z,34.20
2022-08-22T08:04:27.318Z,34.30
2022-08-22T08:06:57.550Z,34.30
2022-08-22T08:09:29.224Z,34.50
2022-08-22T08:11:59.171Z,34.60
2022-08-22T08:14:28.592Z,34.60
2022-08-22T08:17:11.729Z,34.70
2022-08-22T08:19:42.141Z,35.10
2022-08-22T08:22:14.528Z,35.90
2022-08-22T08:24:45.121Z,35.80
2022-08-22T08:27:34.486Z,35.60
2022-08-22T08:30:15.096Z,35.70
2022-08-22T08:32:45.946Z,35.50
2022-08-22T08:35:19.909Z,35.50
2022-08-22T08:37:50.403Z,36.00
2022-08-22T08:40:23.056Z,35.50
2022-08-22T08:43:11.061Z,35.40
2022-08-22T08:45:49.525Z,35.90
2022-08-22T08:48:31.420Z,36.50
2022-08-22T08:51:29.909Z,35.80
2022-08-22T08:54:15.965Z,35.90
2022-08-22T08:56:54.585Z,36.70
2022-08-22T08:59:24.631Z,37.20
2022-08-22T09:01:54.455Z,37.60
2022-08-22T09:04:33.019Z,38.00
2022-08-22T09:07:20.730Z,38.30
2022-08-22T09:09:56.665Z,38.60
2022-08-22T09:12:26.242Z,38.90
2022-08-22T09:15:01.722Z,39.10
2022-08-22T09:17:38.345Z,39.30
2022-08-22T09:20:19.567Z,39.40
2022-08-22T09:26:15.680Z,39.70
2022-08-22T09:29:01.390Z,39.90
2022-08-22T09:34:27.878Z,40.20
2022-08-22T09:37:15.498Z,40.30
2022-08-22T09:40:02.419Z,40.40
2022-08-22T09:40:15.704Z,40.10
2022-08-22T09:42:55.979Z,40.60
2022-08-22T09:45:33.895Z,40.60
2022-08-22T09:48:07.261Z,40.70
2022-08-22T09:50:52.683Z,40.90
2022-08-22T09:53:35.361Z,41.00
2022-08-22T09:56:15.323Z,41.10
2022-08-22T09:58:49.136Z,41.20
2022-08-22T10:01:32.621Z,41.30
2022-08-22T10:04:08.956Z,41.50
2022-08-22T10:07:11.148Z,41.50
2022-08-22T10:09:54.974Z,41.60
2022-08-22T10:12:36.291Z,41.70
2022-08-22T10:15:07.723Z,41.80
2022-08-22T10:17:41.080Z,41.90
2022-08-22T10:20:14.279Z,42.00
2022-08-22T10:22:48.557Z,42.00
2022-08-22T10:25:33.538Z,42.00
2022-08-22T10:28:11.186Z,42.10
2022-08-22T10:30:44.792Z,42.20
2022-08-22T10:33:16.136Z,42.30
2022-08-22T10:35:53.148Z,42.40
2022-08-22T10:38:25.030Z,42.40
2022-08-22T10:40:58.214Z,42.60
2022-08-22T10:43:37.600Z,42.80
2022-08-22T10:46:30.402Z,42.80
2022-08-22T10:49:00.462Z,42.90
2022-08-22T10:51:40.156Z,43.00
2022-08-22T10:54:09.599Z,43.20
2022-08-22T10:57:01.318Z,43.20
2022-08-22T10:59:31.761Z,43.40
2022-08-22T11:02:20.487Z,43.40
2022-08-22T11:04:58.947Z,43.60
2022-08-22T11:07:48.469Z,43.70
2022-08-22T11:10:25.375Z,43.70
2022-08-22T11:13:21.106Z,44.30
2022-08-22T11:15:53.607Z,43.90
2022-08-22T11:18:41.309Z,43.90
2022-08-22T11:21:37.040Z,44.00
2022-08-22T11:24:25.033Z,44.20
2022-08-22T11:27:13.044Z,44.30
2022-08-22T11:29:59.428Z,44.30
2022-08-22T11:32:31.966Z,44.40
2022-08-22T11:35:09.018Z,44.40
2022-08-22T11:38:01.140Z,44.60
2022-08-22T11:40:43.102Z,44.70
2022-08-22T11:43:28.107Z,44.80
2022-08-22T11:46:05.088Z,44.80
2022-08-22T11:48:37.743Z,44.90
2022-08-22T11:51:25.658Z,44.90
2022-08-22T11:54:16.831Z,45.10
2022-08-22T11:56:51.188Z,45.10
2022-08-22T11:59:23.039Z,45.20
2022-08-22T12:01:56.738Z,45.20
2022-08-22T12:04:33.815Z,45.20
2022-08-22T12:07:10.001Z,45.30
2022-08-22T12:09:40.122Z,45.40
2022-08-22T12:12:22.129Z,45.50
2022-08-22T12:15:11.096Z,45.50
2022-08-22T12:18:01.931Z,45.60
2022-08-22T12:20:47.135Z,45.60
2022-08-22T12:23:17.350Z,45.60
2022-08-22T12:25:49.962Z,45.80
2022-08-22T12:28:24.934Z,45.80
2022-08-22T12:31:02.940Z,45.80
2022-08-22T12:33:35.154Z,45.80
2022-08-22T12:36:27.777Z,45.80
2022-08-22T12:39:02.998Z,45.90
2022-08-22T12:41:35.097Z,45.80
2022-08-22T12:44:17.191Z,46.00
2022-08-22T12:46:55.712Z,46.00
2022-08-22T12:49:39.620Z,46.50
2022-08-22T12:52:12.954Z,46.10
2022-08-22T12:55:00.618Z,46.10
2022-08-22T12:57:32.859Z,46.20
2022-08-22T13:00:22.836Z,46.20
2022-08-22T13:02:55.590Z,46.20
2022-08-22T13:05:26.917Z,46.20
2022-08-22T13:08:01.210Z,46.70
2022-08-22T13:10:42.513Z,46.20
2022-08-22T13:13:16.652Z,46.30
2022-08-22T13:15:56.493Z,46.30
2022-08-22T13:18:31.186Z,46.30
2022-08-22T13:21:02.657Z,46.30
2022-08-22T13:23:55.782Z,46.40
2022-08-22T13:26:31.909Z,46.50
2022-08-22T13:29:24.532Z,46.50
2022-08-22T13:32:02.706Z,46.50
2022-08-22T13:34:40.560Z,46.50
2022-08-22T13:37:14.969Z,46.60
2022-08-22T13:39:45.871Z,46.60
2022-08-22T13:42:27.723Z,46.60
2022-08-22T13:45:02.281Z,46.60
2022-08-22T13:47:34.473Z,46.70
2022-08-22T13:50:06.685Z,46.70
2022-08-22T13:52:42.787Z,46.70
2022-08-22T13:55:16.253Z,46.70
2022-08-22T13:57:55.667Z,46.70
2022-08-22T14:00:48.776Z,46.80
2022-08-22T14:03:28.584Z,46.80
2022-08-22T14:05:58.997Z,46.80
2022-08-22T14:08:48.560Z,47.40
2022-08-22T14:11:36.160Z,46.80
2022-08-22T14:14:08.294Z,46.80
2022-08-22T14:16:39.572Z,46.90
2022-08-22T14:19:16.237Z,46.90
2022-08-22T14:21:48.965Z,46.90
2022-08-22T14:24:19.161Z,46.90
2022-08-22T14:27:05.544Z,46.90
2022-08-22T14:29:40.499Z,46.80
2022-08-22T14:32:28.547Z,46.90
2022-08-22T14:35:02.654Z,47.00
2022-08-22T14:37:38.969Z,47.00
2022-08-22T14:40:12.362Z,47.00
2022-08-22T14:42:50.773Z,47.00
2022-08-22T14:45:21.806Z,47.00
2022-08-22T14:48:30.098Z,47.10
2022-08-22T14:51:00.792Z,47.10
2022-08-22T14:53:34.457Z,47.10
2022-08-22T14:56:07.095Z,47.30
2022-08-22T14:58:38.122Z,47.20
2022-08-22T15:01:10.628Z,47.30
2022-08-22T15:03:40.743Z,47.20
2022-08-22T15:06:13.961Z,47.20
2022-08-22T15:08:46.768Z,47.30
2022-08-22T15:11:21.326Z,47.30
2022-08-22T15:13:52.534Z,47.30
2022-08-22T15:16:24.114Z,47.40
2022-08-22T15:18:53.792Z,47.30
2022-08-22T15:21:27.556Z,47.40
2022-08-22T15:23:58.213Z,47.50
2022-08-22T15:26:30.739Z,47.40
2022-08-22T15:29:08.486Z,47.50
2022-08-22T15:31:41.640Z,47.50
2022-08-22T15:34:21.014Z,47.50
2022-08-22T15:37:09.829Z,47.50
2022-08-22T15:39:59.632Z,47.50
2022-08-22T15:42:31.750Z,47.50
2022-08-22T15:45:01.271Z,47.60
2022-08-22T15:47:38.713Z,47.60
2022-08-22T15:50:28.730Z,47.70
2022-08-22T15:53:10.376Z,47.70
2022-08-22T15:55:39.979Z,47.80
2022-08-22T15:58:14.732Z,47.70
2022-08-22T16:00:45.575Z,47.70
2022-08-22T16:03:26.073Z,47.70
2022-08-22T16:05:55.872Z,47.80
2022-08-22T16:08:27.300Z,47.70
2022-08-22T16:11:05.265Z,47.60
2022-08-22T16:13:37.957Z,47.70
2022-08-22T16:16:08.270Z,47.70
2022-08-22T16:18:40.962Z,47.70
2022-08-22T16:21:19.384Z,47.80
2022-08-22T16:24:01.901Z,47.90
2022-08-22T16:26:31.454Z,47.80
2022-08-22T16:29:01.134Z,47.90
2022-08-22T16:31:57.544Z,47.90
2022-08-22T16:34:28.245Z,47.90
2022-08-22T16:37:24.150Z,48.00
2022-08-22T16:39:54.667Z,47.90
2022-08-22T16:42:25.066Z,47.90
2022-08-22T16:45:05.482Z,47.90
2022-08-22T16:47:35.317Z,47.90
2022-08-22T16:50:10.371Z,47.90
2022-08-22T16:52:40.875Z,47.90
2022-08-22T16:55:30.634Z,47.90
2022-08-22T16:58:08.542Z,48.00
2022-08-22T17:00:38.144Z,48.00
2022-08-22T17:03:13.525Z,48.10
2022-08-22T17:05:53.743Z,48.20
2022-08-22T17:08:39.769Z,48.00
2022-08-22T17:11:18.752Z,48.00
2022-08-22T17:14:05.065Z,48.10
2022-08-22T17:16:43.729Z,48.10
2022-08-22T17:19:28.311Z,48.00
2022-08-22T17:22:03.295Z,48.10
2022-08-22T17:24:39.061Z,48.10
2022-08-22T17:27:24.485Z,48.10
2022-08-22T17:30:01.539Z,48.20
2022-08-22T17:32:43.043Z,48.20
2022-08-22T17:35:28.327Z,48.20
2022-08-22T17:38:13.187Z,48.10
2022-08-22T17:40:48.561Z,48.20
2022-08-22T17:43:18.353Z,48.20
2022-08-22T17:45:47.916Z,48.20
2022-08-22T17:48:19.886Z,48.30
2022-08-22T17:50:54.003Z,48.30
2022-08-22T17:53:27.046Z,48.30
2022-08-22T17:55:58.925Z,48.20
2022-08-22T17:58:37.366Z,48.40
2022-08-22T18:01:18.251Z,48.30
2022-08-22T18:04:00.635Z,48.40
2022-08-22T18:06:32.054Z,48.40
2022-08-22T18:09:18.040Z,48.30
2022-08-22T18:11:47.522Z,48.30
2022-08-22T18:14:26.332Z,48.30
2022-08-22T18:16:56.471Z,48.40
2022-08-22T18:19:25.900Z,48.50
2022-08-22T18:21:59.971Z,48.50
2022-08-22T18:24:41.624Z,48.50
2022-08-22T18:27:32.611Z,48.40
2022-08-22T18:30:04.606Z,48.50
2022-08-22T18:32:48.010Z,48.40
2022-08-22T18:35:17.820Z,48.50
2022-08-22T18:38:01.967Z,48.60
2022-08-22T18:40:49.825Z,48.50
2022-08-22T18:43:25.069Z,48.40
2022-08-22T18:45:55.063Z,48.50
2022-08-22T18:48:28.872Z,48.40
2022-08-22T18:51:17.927Z,48.50
2022-08-22T18:53:53.153Z,48.60
2022-08-22T18:56:22.657Z,48.60
2022-08-22T18:59:13.988Z,48.60
2022-08-22T19:01:49.097Z,48.60
2022-08-22T19:04:28.906Z,48.50
2022-08-22T19:06:58.526Z,48.60
2022-08-22T19:09:39.992Z,48.60
2022-08-22T19:12:24.754Z,48.50
2022-08-22T19:15:29.586Z,48.60
2022-08-22T19:18:19.111Z,48.60
2022-08-22T19:21:26.571Z,48.60
2022-08-22T19:23:56.007Z,48.70
2022-08-22T19:26:35.418Z,48.70
2022-08-22T19:29:10.531Z,48.50
2022-08-22T19:31:42.269Z,48.60
2022-08-22T19:34:27.001Z,48.50
2022-08-22T19:37:31.002Z,48.60
2022-08-22T19:40:08.067Z,48.60
2022-08-22T19:42:41.161Z,48.50
2022-08-22T19:45:19.728Z,48.60
2022-08-22T19:48:00.305Z,48.50
2022-08-22T19:50:31.905Z,48.50
2022-08-22T19:53:12.824Z,48.60
2022-08-22T19:56:11.325Z,48.50
2022-08-22T19:58:51.526Z,48.50
2022-08-22T20:01:39.148Z,48.60
2022-08-22T20:04:28.723Z,48.60
2022-08-22T20:07:14.664Z,48.60
2022-08-22T20:09:48.555Z,48.50
2022-08-22T20:12:18.020Z,48.40
2022-08-22T20:14:47.844Z,48.30
2022-08-22T20:17:17.316Z,48.50
2022-08-22T20:20:16.469Z,48.60
2022-08-22T20:22:40.085Z,48.60
2022-08-22T20:25:33.321Z,48.60
2022-08-22T20:28:03.013Z,48.70
2022-08-22T20:30:58.787Z,48.80
2022-08-22T20:33:29.877Z,48.70
2022-08-22T20:36:03.367Z,48.70
2022-08-22T20:38:40.681Z,48.70
2022-08-22T20:41:25.054Z,48.60
2022-08-22T20:44:00.060Z,48.70
2022-08-22T20:46:36.750Z,48.70
2022-08-22T20:49:06.400Z,48.70
2022-08-22T20:51:36.612Z,48.70
2022-08-22T20:54:10.397Z,48.70
2022-08-22T20:56:53.565Z,48.80
2022-08-22T20:59:33.436Z,48.80
2022-08-22T21:02:08.851Z,48.70
2022-08-22T21:04:46.114Z,48.60
2022-08-22T21:07:21.686Z,48.50
2022-08-22T21:10:20.266Z,48.70
2022-08-22T21:13:12.372Z,48.70
2022-08-22T21:15:43.318Z,48.70
2022-08-22T21:18:13.650Z,48.80
2022-08-22T21:20:43.192Z,48.80
2022-08-22T21:23:14.482Z,48.80
2022-08-22T21:25:50.953Z,48.60
2022-08-22T21:28:30.729Z,48.70
2022-08-22T21:31:00.519Z,48.70
2022-08-22T21:33:30.667Z,48.70
2022-08-22T21:36:00.725Z,48.70
2022-08-22T21:38:30.189Z,48.60
2022-08-22T21:41:03.289Z,48.70
2022-08-22T21:43:38.229Z,48.70
2022-08-22T21:46:07.934Z,48.70
2022-08-22T21:48:40.554Z,48.70
2022-08-22T21:51:28.392Z,48.60
2022-08-22T21:54:18.452Z,48.80
2022-08-22T21:56:48.842Z,48.70
2022-08-22T21:59:25.055Z,48.80
2022-08-22T22:01:55.537Z,48.90
2022-08-22T22:04:25.156Z,48.80
2022-08-22T22:06:54.785Z,48.80
2022-08-22T22:09:24.271Z,48.80
2022-08-22T22:11:53.781Z,48.70
2022-08-22T22:14:23.216Z,48.60
2022-08-22T22:16:52.747Z,48.70
2022-08-22T22:19:22.221Z,48.80
2022-08-22T22:21:51.673Z,48.70
2022-08-22T22:24:21.128Z,48.80
2022-08-22T22:26:50.580Z,48.70
2022-08-22T22:29:20.029Z,48.70
2022-08-22T22:31:49.489Z,48.70
2022-08-22T22:34:19.015Z,48.60
2022-08-22T22:36:48.496Z,48.60
2022-08-22T22:39:17.905Z,48.60
2022-08-22T22:41:47.413Z,48.50
2022-08-22T22:44:16.873Z,48.50
2022-08-22T22:46:51.089Z,48.70
2022-08-22T22:49:20.751Z,48.70
2022-08-22T22:51:50.358Z,48.70
2022-08-22T22:54:19.826Z,48.70
2022-08-22T22:56:56.910Z,48.60
2022-08-22T22:59:28.235Z,48.50
2022-08-22T23:02:02.582Z,48.40
2022-08-22T23:04:36.474Z,48.30
2022-08-22T23:07:06.486Z,48.40
2022-08-22T23:09:38.434Z,48.50
2022-08-22T23:12:14.956Z,48.40
2022-08-22T23:14:44.499Z,48.40
2022-08-22T23:17:14.120Z,48.40
2022-08-22T23:19:43.632Z,48.40
2022-08-22T23:22:15.718Z,48.40
2022-08-22T23:24:45.549Z,48.40
2022-08-22T23:27:14.982Z,48.30
2022-08-22T23:29:44.477Z,48.30
2022-08-22T23:32:14.088Z,48.30
2022-08-22T23:34:47.387Z,48.20
2022-08-22T23:37:17.812Z,48.20
2022-08-22T23:39:47.541Z,48.30
2022-08-22T23:42:17.534Z,48.30
2022-08-22T23:44:47.379Z,48.30
2022-08-22T23:47:16.961Z,48.30
2022-08-22T23:49:46.450Z,48.20
2022-08-22T23:52:15.940Z,48.10
2022-08-22T23:54:45.421Z,48.20
2022-08-22T23:57:14.866Z,48.10
2022-08-22T23:59:48.485Z,48.00
